Time;durP1;ratioP1;P1;durP2;ratioP2;P2;SDS_P1;SDS_P2;PMS_P1;PMS_P2;Temp;Humidity;BMP_temperature;BMP_pressure;BME280_temperature;BME280_humidity;BME280_pressure;Samples;Min_cycle;Max_cycle;Signal;HPM_P1;HPM_P2
2022/07/24 00:00:38;;;;;;;5.97;2.58;;;;;;;17.17;100.00;100946.16;5083978;28;20107;-47
2022/07/24 00:03:04;;;;;;;2.40;0.98;;;;;;;17.16;100.00;100960.56;5081009;28;20063;-47
2022/07/24 00:05:29;;;;;;;6.63;2.35;;;;;;;17.17;100.00;100954.19;5084104;28;20114;-55
2022/07/24 00:07:55;;;;;;;0.95;0.90;;;;;;;17.14;100.00;100946.59;5084626;28;20104;-47
2022/07/24 00:10:20;;;;;;;2.20;0.80;;;;;;;17.15;100.00;100948.22;5084891;28;20031;-47
2022/07/24 00:12:46;;;;;;;3.30;1.58;;;;;;;17.15;100.00;100952.78;5083067;28;20475;-52
2022/07/24 00:15:12;;;;;;;3.80;0.85;;;;;;;17.12;100.00;100946.00;5083793;28;20028;-51
2022/07/24 00:17:37;;;;;;;2.17;0.95;;;;;;;17.10;100.00;100949.94;5084520;28;20028;-46
2022/07/24 00:20:05;;;;;;;3.42;1.38;;;;;;;17.07;100.00;100951.19;5086602;28;20059;-47
2022/07/24 00:22:31;;;;;;;2.47;0.90;;;;;;;17.04;100.00;100951.66;5082888;28;20350;-49
2022/07/24 00:24:56;;;;;;;6.93;1.45;;;;;;;17.04;100.00;100940.09;5083627;28;20073;-54
2022/07/24 00:27:21;;;;;;;0.95;0.60;;;;;;;17.03;100.00;100955.34;5085581;28;20078;-53
2022/07/24 00:29:47;;;;;;;0.57;0.57;;;;;;;17.04;100.00;100948.13;5080982;28;20114;-51
2022/07/24 00:32:13;;;;;;;3.90;0.77;;;;;;;17.01;100.00;100946.72;5083083;28;20024;-47
2022/07/24 00:34:38;;;;;;;2.55;0.90;;;;;;;17.04;100.00;100937.41;5083717;28;20034;-50
2022/07/24 00:37:03;;;;;;;2.95;1.45;;;;;;;17.03;100.00;100933.09;5080173;28;20039;-56
2022/07/24 00:39:29;;;;;;;0.75;0.70;;;;;;;17.02;100.00;100945.69;5085512;28;20036;-55
2022/07/24 00:41:54;;;;;;;4.05;1.13;;;;;;;17.03;100.00;100944.63;5081419;28;20437;-50
2022/07/24 00:44:20;;;;;;;1.30;0.85;;;;;;;17.03;100.00;100947.31;5085986;28;20173;-47
2022/07/24 00:46:46;;;;;;;3.72;1.08;;;;;;;17.06;100.00;100941.50;5084982;28;20421;-48
2022/07/24 00:49:16;;;;;;;2.60;0.82;;;;;;;17.07;100.00;100947.72;5084433;28;20195;-54
2022/07/24 00:51:43;;;;;;;3.28;1.33;;;;;;;17.08;100.00;100944.78;5086036;28;20082;-47
2022/07/24 00:54:11;;;;;;;1.80;0.88;;;;;;;17.09;100.00;100950.97;5083284;28;20032;-48
2022/07/24 00:56:38;;;;;;;2.83;1.02;;;;;;;17.10;100.00;100948.06;5085751;28;20028;-48
2022/07/24 00:59:04;;;;;;;2.45;1.30;;;;;;;17.10;100.00;100940.03;5080038;28;20028;-51
2022/07/24 01:01:30;;;;;;;2.20;0.88;;;;;;;17.09;100.00;100935.72;5083712;28;20039;-48
2022/07/24 01:03:56;;;;;;;1.75;0.47;;;;;;;17.09;100.00;100925.00;5075669;28;20032;-54
2022/07/24 01:06:22;;;;;;;0.98;0.68;;;;;;;17.09;100.00;100927.69;5082782;28;20398;-47
2022/07/24 01:08:48;;;;;;;3.63;1.15;;;;;;;17.08;100.00;100931.41;5080021;28;20111;-49
2022/07/24 01:11:14;;;;;;;1.45;0.90;;;;;;;17.08;100.00;100926.03;5083026;28;20202;-52
2022/07/24 01:13:40;;;;;;;1.42;0.95;;;;;;;17.08;100.00;100918.00;5085964;28;20077;-46
2022/07/24 01:16:07;;;;;;;3.17;0.80;;;;;;;17.09;100.00;100913.44;5084052;28;20035;-54
2022/07/24 01:18:33;;;;;;;3.03;0.43;;;;;;;17.10;100.00;100912.44;5086237;28;20020;-49
2022/07/24 01:20:59;;;;;;;1.75;0.70;;;;;;;17.09;100.00;100900.91;5082074;28;20073;-50
2022/07/24 01:23:24;;;;;;;2.35;0.82;;;;;;;17.10;100.00;100912.44;5086665;28;20031;-52
2022/07/24 01:25:50;;;;;;;2.05;1.15;;;;;;;17.08;100.00;100903.78;5074074;28;20330;-49
2022/07/24 01:28:16;;;;;;;1.40;1.30;;;;;;;17.09;100.00;100900.06;5083031;28;20198;-48
2022/07/24 01:30:42;;;;;;;1.92;0.43;;;;;;;17.09;100.00;100905.41;5080296;28;20112;-45
2022/07/24 01:33:08;;;;;;;4.65;0.60;;;;;;;17.08;100.00;100901.13;5082610;28;20031;-53
2022/07/24 01:35:33;;;;;;;2.10;1.02;;;;;;;17.06;100.00;100904.00;5081701;28;20047;-49
2022/07/24 01:37:58;;;;;;;2.33;1.52;;;;;;;17.07;100.00;100896.81;5084532;28;20059;-45
2022/07/24 01:40:24;;;;;;;2.75;1.08;;;;;;;17.06;100.00;100895.97;5082256;28;20111;-52
2022/07/24 01:42:50;;;;;;;4.03;0.70;;;;;;;17.05;100.00;100891.66;5085452;28;20024;-51
2022/07/24 01:45:17;;;;;;;2.00;0.50;;;;;;;17.05;100.00;100880.94;5084353;28;21570;-48
2022/07/24 01:47:43;;;;;;;1.95;0.77;;;;;;;17.05;100.00;100880.13;5080632;28;20028;-47
2022/07/24 01:50:10;;;;;;;3.78;0.80;;;;;;;17.06;100.00;100879.88;5083281;28;20028;-49
2022/07/24 01:52:36;;;;;;;5.30;1.85;;;;;;;17.05;100.00;100880.94;5081872;28;20566;-48
2022/07/24 01:55:01;;;;;;;3.97;1.38;;;;;;;17.06;100.00;100884.44;5082799;28;20115;-51
2022/07/24 01:57:26;;;;;;;2.22;0.68;;;;;;;17.06;100.00;100876.41;5085651;28;20913;-46
2022/07/24 01:59:52;;;;;;;2.92;1.02;;;;;;;17.05;100.00;100880.13;5085745;28;20029;-49
2022/07/24 02:02:17;;;;;;;1.27;1.08;;;;;;;17.04;100.00;100865.94;5081468;28;20046;-50
2022/07/24 02:04:43;;;;;;;2.60;1.35;;;;;;;17.03;100.00;100868.81;5077568;28;20024;-57
2022/07/24 02:07:08;;;;;;;1.02;0.52;;;;;;;17.05;100.00;100882.81;5078751;28;20077;-51
2022/07/24 02:09:33;;;;;;;0.77;0.50;;;;;;;17.06;100.00;100876.41;5079646;28;20039;-47
2022/07/24 02:11:59;;;;;;;4.68;0.77;;;;;;;17.06;100.00;100882.56;5083266;28;20464;-44
2022/07/24 02:14:24;;;;;;;1.00;0.90;;;;;;;17.08;100.00;100877.81;5081617;28;20035;-49
2022/07/24 02:16:49;;;;;;;5.13;1.27;;;;;;;17.08;100.00;100869.78;5080915;28;20092;-50
2022/07/24 02:19:15;;;;;;;2.05;0.60;;;;;;;17.09;100.00;100874.09;5085275;28;20114;-52
2022/07/24 02:21:40;;;;;;;3.63;1.63;;;;;;;17.10;100.00;100873.06;5084611;28;20052;-50
2022/07/24 02:24:06;;;;;;;2.88;0.52;;;;;;;17.10;100.00;100875.72;5082158;28;20084;-49
2022/07/24 02:26:32;;;;;;;2.42;0.80;;;;;;;17.10;100.00;100878.41;5081921;28;20059;-43
2022/07/24 02:28:57;;;;;;;1.08;0.45;;;;;;;17.10;100.00;100878.41;5087916;28;20537;-49
2022/07/24 02:31:22;;;;;;;1.17;0.68;;;;;;;17.10;100.00;100873.06;5087371;28;20024;-50
2022/07/24 02:33:48;;;;;;;1.83;0.75;;;;;;;17.07;100.00;100870.84;5089170;28;20433;-51
2022/07/24 02:36:14;;;;;;;3.15;1.70;;;;;;;17.07;100.00;100868.16;5089380;28;20032;-50
2022/07/24 02:38:40;;;;;;;5.47;0.85;;;;;;;17.06;100.00;100868.38;5083876;28;20505;-52
2022/07/24 02:41:05;;;;;;;1.27;0.70;;;;;;;16.99;100.00;100863.09;5087579;28;20446;-49
2022/07/24 02:43:31;;;;;;;2.85;1.10;;;;;;;16.95;100.00;100883.31;5076953;28;20029;-53
2022/07/24 02:45:56;;;;;;;1.08;0.60;;;;;;;16.95;100.00;100877.97;5082299;28;20032;-53
2022/07/24 02:48:22;;;;;;;1.73;0.47;;;;;;;16.94;100.00;100879.03;5086441;28;20048;-55
2022/07/24 02:50:47;;;;;;;0.73;0.40;;;;;;;16.97;100.00;100882.06;5083631;28;20025;-45
2022/07/24 02:53:12;;;;;;;1.70;0.60;;;;;;;16.98;100.00;100869.47;5088050;28;20400;-47
2022/07/24 02:55:38;;;;;;;2.25;0.45;;;;;;;17.00;100.00;100872.75;5080230;28;20472;-53
2022/07/24 02:58:03;;;;;;;1.75;0.80;;;;;;;17.00;100.00;100872.75;5087092;28;20580;-44
2022/07/24 03:00:29;;;;;;;3.72;0.88;;;;;;;16.99;100.00;100871.94;5082888;28;20028;-54
2022/07/24 03:02:54;;;;;;;3.63;1.10;;;;;;;16.99;100.00;100874.63;5085286;28;20043;-48
2022/07/24 03:05:20;;;;;;;3.55;0.55;;;;;;;17.00;100.00;100870.09;5077759;28;20048;-46
2022/07/24 03:07:46;;;;;;;5.20;0.63;;;;;;;17.01;100.00;100871.72;5083777;28;20027;-50
2022/07/24 03:10:12;;;;;;;1.27;0.82;;;;;;;17.01;100.00;100877.06;5087144;28;20164;-44
2022/07/24 03:12:39;;;;;;;5.78;1.45;;;;;;;17.02;100.00;100877.91;5087595;28;20042;-48
2022/07/24 03:15:05;;;;;;;5.53;0.80;;;;;;;17.01;100.00;100869.03;5078316;28;20093;-54
2022/07/24 03:17:30;;;;;;;2.67;1.00;;;;;;;17.02;100.00;100861.84;5087651;28;20080;-44
2022/07/24 03:19:55;;;;;;;2.03;0.70;;;;;;;17.02;100.00;100856.47;5086521;28;20051;-51
2022/07/24 03:22:21;;;;;;;2.75;0.68;;;;;;;17.00;100.00;100867.41;5084711;28;20081;-45
2022/07/24 03:24:46;;;;;;;3.15;0.82;;;;;;;17.00;100.00;100872.75;5082317;28;20504;-51
2022/07/24 03:27:11;;;;;;;1.88;0.95;;;;;;;16.99;100.00;100871.13;5085776;28;20084;-43
2022/07/24 03:29:37;;;;;;;1.35;1.27;;;;;;;17.00;100.00;100867.41;5082788;28;20127;-49
2022/07/24 03:32:02;;;;;;;4.38;0.63;;;;;;;16.99;100.00;100871.94;5088401;28;20143;-47
2022/07/24 03:34:28;;;;;;;1.63;0.85;;;;;;;16.99;100.00;100857.75;5086440;28;20369;-51
2022/07/24 03:36:53;;;;;;;1.92;0.90;;;;;;;16.99;100.00;100863.09;5077086;28;20124;-48
2022/07/24 03:39:19;;;;;;;2.85;1.33;;;;;;;16.95;100.00;100857.34;5086509;28;20097;-50
2022/07/24 03:41:44;;;;;;;3.20;0.82;;;;;;;16.96;100.00;100858.16;5088408;28;20028;-54
2022/07/24 03:44:09;;;;;;;1.63;0.50;;;;;;;16.95;100.00;100857.34;5080271;28;20023;-48
2022/07/24 03:46:35;;;;;;;1.88;1.05;;;;;;;16.95;100.00;100851.19;5084929;28;20027;-50
2022/07/24 03:49:00;;;;;;;8.00;0.90;;;;;;;16.95;100.00;100848.50;5086907;28;20025;-46
2022/07/24 03:51:26;;;;;;;0.40;0.40;;;;;;;16.95;100.00;100859.22;5083042;28;20039;-47
2022/07/24 03:53:51;;;;;;;2.22;0.50;;;;;;;16.95;100.00;100854.69;5085801;28;20155;-53
2022/07/24 03:56:17;;;;;;;2.60;0.73;;;;;;;16.94;100.00;100853.06;5086613;28;20050;-46
2022/07/24 03:58:43;;;;;;;2.08;0.38;;;;;;;16.93;100.00;100853.25;5084720;28;20048;-54
2022/07/24 04:01:08;;;;;;;1.98;0.77;;;;;;;16.91;100.00;100848.16;5082391;28;20054;-56
2022/07/24 04:03:34;;;;;;;1.20;0.65;;;;;;;16.90;100.00;100846.50;5086154;28;20063;-55
2022/07/24 04:06:03;;;;;;;2.90;0.85;;;;;;;16.90;100.00;100843.00;5082000;28;20028;-55
2022/07/24 04:08:28;;;;;;;1.95;0.75;;;;;;;16.88;100.00;100829.00;5087845;28;20044;-59
2022/07/24 04:10:56;;;;;;;1.45;1.33;;;;;;;16.86;100.00;100829.25;5085261;28;20028;-52
2022/07/24 04:13:27;;;;;;;2.05;1.45;;;;;;;16.86;100.00;100834.63;5087156;28;20020;-49
2022/07/24 04:15:53;;;;;;;3.30;1.15;;;;;;;16.87;100.00;100838.09;5080053;28;20503;-58
2022/07/24 04:18:19;;;;;;;2.42;1.30;;;;;;;16.86;100.00;100842.66;5088649;28;20466;-55
2022/07/24 04:20:45;;;;;;;3.88;0.98;;;;;;;16.88;100.00;100839.72;5086090;28;20055;-48
2022/07/24 04:23:10;;;;;;;2.25;1.00;;;;;;;16.87;100.00;100830.06;5089573;28;20135;-58
2022/07/24 04:25:35;;;;;;;2.38;1.10;;;;;;;16.88;100.00;100839.72;5082577;28;20168;-59
2022/07/24 04:28:01;;;;;;;6.43;1.63;;;;;;;16.88;100.00;100839.72;5070663;28;20122;-49
2022/07/24 04:30:27;;;;;;;3.17;0.95;;;;;;;16.87;100.00;100838.91;5086732;28;20161;-47
2022/07/24 04:32:52;;;;;;;1.42;1.13;;;;;;;16.85;100.00;100835.63;5080428;28;20053;-58
2022/07/24 04:35:18;;;;;;;3.40;1.63;;;;;;;16.85;100.00;100835.63;5074348;28;20029;-45
2022/07/24 04:37:44;;;;;;;4.18;0.80;;;;;;;16.85;100.00;100848.22;5084402;28;20132;-46
2022/07/24 04:40:10;;;;;;;2.15;1.00;;;;;;;16.84;100.00;100836.69;5076327;28;20032;-43
2022/07/24 04:42:36;;;;;;;2.10;0.85;;;;;;;16.84;100.00;100827.84;5080936;28;20070;-49
2022/07/24 04:45:01;;;;;;;3.42;0.68;;;;;;;16.84;100.00;100831.34;5080122;28;20428;-44
2022/07/24 04:47:26;;;;;;;4.07;0.60;;;;;;;16.85;100.00;100829.47;5083319;28;20032;-48
2022/07/24 04:49:52;;;;;;;2.38;1.02;;;;;;;16.84;100.00;100828.66;5085660;28;20020;-44
2022/07/24 04:52:17;;;;;;;2.55;0.98;;;;;;;16.82;100.00;100829.91;5076460;28;20036;-49
2022/07/24 04:54:43;;;;;;;3.03;0.82;;;;;;;16.83;100.00;100826.19;5081723;28;20506;-47
2022/07/24 04:57:08;;;;;;;6.50;0.95;;;;;;;16.84;100.00;100838.56;5079535;28;20028;-52
2022/07/24 04:59:33;;;;;;;5.10;1.33;;;;;;;16.84;100.00;100828.66;5079978;28;20049;-43
2022/07/24 05:01:59;;;;;;;3.67;0.88;;;;;;;16.86;100.00;100831.13;5083332;28;20037;-48
2022/07/24 05:04:24;;;;;;;4.03;0.90;;;;;;;16.88;100.00;100834.38;5080693;28;20162;-47
2022/07/24 05:06:50;;;;;;;3.20;1.08;;;;;;;16.89;100.00;100825.31;5074709;28;20024;-45
2022/07/24 05:09:15;;;;;;;2.60;0.60;;;;;;;16.87;100.00;100833.56;5081465;28;20040;-49
2022/07/24 05:11:40;;;;;;;2.05;0.70;;;;;;;16.88;100.00;100827.19;5078384;28;20663;-45
2022/07/24 05:14:06;;;;;;;1.50;0.90;;;;;;;16.90;100.00;100826.94;5082942;28;20032;-43
2022/07/24 05:16:31;;;;;;;2.50;0.60;;;;;;;16.89;100.00;100826.13;5080056;28;20032;-48
2022/07/24 05:18:57;;;;;;;1.85;0.55;;;;;;;16.90;100.00;100826.94;5084966;28;20039;-46
2022/07/24 05:21:23;;;;;;;1.30;0.73;;;;;;;16.91;100.00;100836.59;5075924;28;20051;-43
2022/07/24 05:23:48;;;;;;;5.43;0.82;;;;;;;16.90;100.00;100824.25;5076651;28;20032;-45
2022/07/24 05:26:14;;;;;;;6.25;0.77;;;;;;;16.89;100.00;100830.66;5079963;28;20081;-54
2022/07/24 05:28:39;;;;;;;2.85;1.00;;;;;;;16.88;100.00;100834.38;5083744;28;20024;-48
2022/07/24 05:31:05;;;;;;;2.28;0.85;;;;;;;16.89;100.00;100838.69;5074861;28;20500;-47
2022/07/24 05:33:31;;;;;;;2.33;0.80;;;;;;;16.87;100.00;100836.25;5081209;28;20032;-53
2022/07/24 05:35:56;;;;;;;7.20;1.40;;;;;;;16.86;100.00;100831.94;5079084;28;20104;-52
2022/07/24 05:38:22;;;;;;;0.90;0.82;;;;;;;16.88;100.00;100834.38;5087739;28;20032;-52
2022/07/24 05:40:47;;;;;;;1.75;0.77;;;;;;;16.87;100.00;100828.19;5075878;28;20531;-46
2022/07/24 05:43:12;;;;;;;7.22;1.52;;;;;;;16.87;100.00;100832.75;5083838;28;20028;-55
2022/07/24 05:45:38;;;;;;;3.88;0.60;;;;;;;16.84;100.00;100830.53;5086791;28;20111;-56
2022/07/24 05:48:04;;;;;;;4.43;0.63;;;;;;;16.84;100.00;100831.34;5085273;28;20067;-45
2022/07/24 05:50:29;;;;;;;2.58;0.80;;;;;;;16.84;100.00;100827.84;5084800;28;20074;-46
2022/07/24 05:52:55;;;;;;;2.38;0.90;;;;;;;16.87;100.00;100832.75;5083179;28;20476;-44
2022/07/24 05:55:20;;;;;;;2.25;0.88;;;;;;;16.91;100.00;100818.69;5080451;28;20089;-50
2022/07/24 05:57:46;;;;;;;2.92;0.77;;;;;;;16.93;100.00;100821.94;5077951;28;20173;-56
2022/07/24 06:00:13;;;;;;;2.15;0.65;;;;;;;16.95;100.00;100825.22;5085491;28;20028;-53
2022/07/24 06:02:39;;;;;;;1.48;0.75;;;;;;;16.99;100.00;100828.28;5082964;28;20380;-48
2022/07/24 06:05:04;;;;;;;2.47;0.25;;;;;;;16.99;100.00;100825.59;5081760;28;20037;-46
2022/07/24 06:07:30;;;;;;;4.80;0.30;;;;;;;16.96;100.00;100826.03;5088386;28;20028;-47
2022/07/24 06:09:55;;;;;;;1.35;0.95;;;;;;;16.98;100.00;100829.31;5083779;28;20107;-51
2022/07/24 06:12:20;;;;;;;1.70;0.57;;;;;;;17.02;100.00;100825.16;5082011;28;20024;-43
2022/07/24 06:14:46;;;;;;;3.20;0.55;;;;;;;16.99;100.00;100821.06;5086598;28;20481;-44
2022/07/24 06:17:11;;;;;;;1.33;0.50;;;;;;;17.02;100.00;100816.31;5086219;28;20028;-49
2022/07/24 06:19:37;;;;;;;4.82;0.60;;;;;;;17.05;100.00;100829.25;5083645;28;20025;-50
2022/07/24 06:22:02;;;;;;;0.13;0.13;;;;;;;17.08;100.00;100829.59;5085046;28;20040;-53
2022/07/24 06:24:27;;;;;;;2.15;0.93;;;;;;;17.13;100.00;100832.41;5082774;28;20119;-45
2022/07/24 06:26:53;;;;;;;3.92;0.35;;;;;;;17.17;100.00;100819.41;5085868;28;20038;-43
2022/07/24 06:29:18;;;;;;;0.45;0.22;;;;;;;17.17;100.00;100819.41;5085375;28;20024;-47
2022/07/24 06:31:44;;;;;;;3.33;0.68;;;;;;;17.17;100.00;100817.53;5084697;28;20554;-52
2022/07/24 06:34:09;;;;;;;0.70;0.47;;;;;;;17.18;100.00;100813.78;5083924;28;20077;-54
2022/07/24 06:36:35;;;;;;;1.90;0.52;;;;;;;17.21;100.00;100812.53;5086514;28;20063;-53
2022/07/24 06:39:00;;;;;;;3.03;0.93;;;;;;;17.25;100.00;100807.56;5084673;28;20085;-49
2022/07/24 06:41:25;;;;;;;1.67;0.57;;;;;;;17.34;100.00;100808.84;5084891;28;20126;-50
2022/07/24 06:43:51;;;;;;;3.08;0.32;;;;;;;17.39;100.00;100807.13;5080893;28;20048;-50
2022/07/24 06:46:16;;;;;;;1.75;0.57;;;;;;;17.44;100.00;100806.44;5082771;28;20032;-49
2022/07/24 06:48:41;;;;;;;0.95;0.10;;;;;;;17.44;100.00;100809.94;5077814;28;20192;-54
2022/07/24 06:51:07;;;;;;;4.82;0.32;;;;;;;17.47;100.00;100808.66;5086594;28;20089;-49
2022/07/24 06:53:32;;;;;;;2.75;0.85;;;;;;;17.47;100.00;100794.44;5080471;28;20103;-53
2022/07/24 06:55:57;;;;;;;4.28;0.30;;;;;;;17.52;100.00;100797.25;5086531;28;20023;-54
2022/07/24 06:58:23;;;;;;;19.58;1.95;;;;;;;17.55;100.00;100796.78;5077632;28;20035;-47
2022/07/24 07:00:48;;;;;;;3.78;0.30;;;;;;;17.53;100.00;100791.69;5084201;28;20067;-50
2022/07/24 07:03:15;;;;;;;1.90;0.22;;;;;;;17.55;100.00;100794.91;5086917;28;20476;-50
2022/07/24 07:05:40;;;;;;;8.15;1.38;;;;;;;17.62;100.00;100794.84;5084376;28;20028;-49
2022/07/24 07:08:05;;;;;;;3.88;0.47;;;;;;;17.67;100.00;100798.44;5082322;28;20039;-54
2022/07/24 07:10:31;;;;;;;0.95;0.32;;;;;;;17.69;100.00;100808.16;5084785;28;20102;-51
2022/07/24 07:12:56;;;;;;;1.95;0.15;;;;;;;17.72;100.00;100797.78;5085576;28;20028;-51
2022/07/24 07:15:22;;;;;;;0.98;0.80;;;;;;;17.77;100.00;100794.41;5084805;28;20064;-51
2022/07/24 07:17:48;;;;;;;2.33;0.57;;;;;;;17.86;100.00;100801.06;5079095;28;20566;-52
2022/07/24 07:20:14;;;;;;;2.13;0.28;;;;;;;17.95;100.00;100790.84;5086395;28;20031;-58
2022/07/24 07:22:40;;;;;;;2.97;0.88;;;;;;;18.03;100.00;100802.03;5088713;28;20036;-53
2022/07/24 07:25:07;;;;;;;1.65;0.15;;;;;;;18.09;100.00;100785.00;5086945;28;20039;-48
2022/07/24 07:27:33;;;;;;;2.20;0.32;;;;;;;18.19;100.00;100791.66;5081815;28;20031;-49
2022/07/24 07:29:59;;;;;;;1.15;0.40;;;;;;;18.30;100.00;100785.47;5081095;28;20025;-47
2022/07/24 07:32:24;;;;;;;3.67;0.20;;;;;;;18.38;100.00;100792.34;5084151;28;20078;-55
2022/07/24 07:34:50;;;;;;;2.38;0.80;;;;;;;18.44;100.00;100778.81;5085740;28;20024;-50
2022/07/24 07:37:15;;;;;;;0.88;0.70;;;;;;;18.63;100.00;100765.22;5086429;28;20120;-58
2022/07/24 07:39:41;;;;;;;2.28;0.40;;;;;;;18.75;100.00;100779.47;5083269;28;20120;-51
2022/07/24 07:42:06;;;;;;;1.25;0.35;;;;;;;18.83;100.00;100781.78;5083089;28;20040;-55
2022/07/24 07:44:31;;;;;;;3.35;0.50;;;;;;;18.94;100.00;100778.22;5082822;28;20039;-51
2022/07/24 07:46:57;;;;;;;1.35;0.17;;;;;;;19.06;100.00;100777.38;5084906;28;20032;-50
2022/07/24 07:49:22;;;;;;;2.25;0.50;;;;;;;19.08;100.00;100776.09;5081249;28;20049;-59
2022/07/24 07:51:51;;;;;;;2.88;0.40;;;;;;;19.21;100.00;100766.91;5086718;28;20048;-51
2022/07/24 07:54:16;;;;;;;4.57;1.48;;;;;;;19.28;100.00;100772.94;5086144;28;20040;-54
2022/07/24 07:56:42;;;;;;;1.17;0.25;;;;;;;19.65;100.00;100767.13;5083426;28;20069;-57
2022/07/24 07:59:07;;;;;;;1.70;0.25;;;;;;;20.07;100.00;100761.34;5086228;28;20031;-56
2022/07/24 08:01:33;;;;;;;1.33;0.32;;;;;;;20.26;100.00;100749.25;5084396;28;20032;-61
2022/07/24 08:03:58;;;;;;;1.27;0.22;;;;;;;20.19;100.00;100742.41;5082352;28;20511;-57
2022/07/24 08:06:24;;;;;;;3.15;0.20;;;;;;;20.10;100.00;100743.88;5085246;28;20028;-58
2022/07/24 08:08:49;;;;;;;2.00;0.50;;;;;;;20.19;100.00;100732.44;5086595;28;20032;-52
2022/07/24 08:11:14;;;;;;;2.28;0.57;;;;;;;20.30;100.00;100736.09;5080252;28;20036;-57
2022/07/24 08:13:40;;;;;;;1.35;0.50;;;;;;;20.22;100.00;100739.22;5084773;28;20024;-54
2022/07/24 08:16:06;;;;;;;1.30;0.50;;;;;;;20.22;100.00;100729.25;5081272;28;20107;-53
2022/07/24 08:18:31;;;;;;;2.58;1.25;;;;;;;20.27;100.00;100731.22;5082647;28;20461;-47
2022/07/24 08:20:56;;;;;;;0.90;0.25;;;;;;;20.55;100.00;100713.25;5081626;28;20032;-57
2022/07/24 08:23:22;;;;;;;2.28;0.30;;;;;;;20.77;100.00;100719.44;5080956;28;20751;-54
2022/07/24 08:25:47;;;;;;;3.70;0.63;;;;;;;20.78;100.00;100706.78;5081998;28;20024;-50
2022/07/24 08:28:12;;;;;;;2.20;1.30;;;;;;;21.01;100.00;100716.44;5081015;28;20070;-54
2022/07/24 08:30:38;;;;;;;4.82;0.40;;;;;;;21.17;100.00;100712.00;5078183;28;20027;-53
2022/07/24 08:33:03;;;;;;;0.45;0.20;;;;;;;21.28;100.00;100706.47;5077436;28;20496;-52
2022/07/24 08:35:29;;;;;;;1.40;0.30;;;;;;;21.57;100.00;100706.19;5075086;28;20613;-49
2022/07/24 08:37:54;;;;;;;1.15;0.32;;;;;;;21.81;100.00;100703.09;5075952;28;20020;-54
2022/07/24 08:40:21;;;;;;;1.85;0.93;;;;;;;21.93;100.00;100698.31;5077995;28;20028;-46
2022/07/24 08:42:47;;;;;;;0.95;0.40;;;;;;;21.97;100.00;100694.84;5083270;28;20031;-53
2022/07/24 08:45:13;;;;;;;0.88;0.40;;;;;;;22.04;100.00;100700.00;5077703;28;20173;-47
2022/07/24 08:47:40;;;;;;;4.35;0.85;;;;;;;21.94;100.00;100706.16;5081879;28;20020;-56
2022/07/24 08:50:06;;;;;;;1.45;1.35;;;;;;;21.98;100.00;100692.94;5081171;28;20035;-51
2022/07/24 08:52:35;;;;;;;2.90;1.65;;;;;;;21.86;100.00;100706.63;5080190;28;20024;-50
2022/07/24 08:55:01;;;;;;;1.60;0.47;;;;;;;21.91;100.00;100706.66;5076997;28;20020;-50
2022/07/24 08:57:26;;;;;;;1.55;0.45;;;;;;;22.11;100.00;100695.19;5078375;28;20332;-52
2022/07/24 08:59:52;;;;;;;10.05;1.42;;;;;;;22.33;100.00;100696.91;5082723;28;20028;-57
2022/07/24 09:02:17;;;;;;;2.17;0.60;;;;;;;22.33;100.00;100697.75;5077745;28;20391;-58
2022/07/24 09:04:45;;;;;;;1.75;1.10;;;;;;;22.35;100.00;100689.34;5082084;28;20503;-54
2022/07/24 09:07:14;;;;;;;1.65;0.85;;;;;;;22.47;100.00;100672.94;5081356;28;20032;-54
2022/07/24 09:09:41;;;;;;;1.13;0.45;;;;;;;22.59;100.00;100678.94;5064040;28;20123;-56
2022/07/24 09:12:14;;;;;;;1.55;0.45;;;;;;;22.64;100.00;100671.63;5080869;28;20067;-47
2022/07/24 09:14:43;;;;;;;0.40;0.40;;;;;;;22.62;100.00;100683.78;5079614;28;20047;-49
2022/07/24 09:17:11;;;;;;;0.82;0.50;;;;;;;22.79;100.00;100667.31;5075869;28;20043;-47
2022/07/24 09:19:53;;;;;;;1.75;1.17;;;;;;;22.97;100.00;100669.53;5080235;28;20499;-46
2022/07/24 09:22:45;;;;;;;1.50;0.55;;;;;;;22.85;100.00;100656.25;5077784;28;20772;-52
2022/07/24 09:25:10;;;;;;;3.83;0.60;;;;;;;22.86;100.00;100652.47;5067661;28;20063;-47
2022/07/24 09:27:46;;;;;;;1.42;1.02;;;;;;;22.96;100.00;100651.69;5078091;28;20062;-55
2022/07/24 09:30:23;;;;;;;0.43;0.43;;;;;;;23.10;100.00;100651.97;5076563;28;20111;-53
2022/07/24 09:33:00;;;;;;;3.28;0.32;;;;;;;23.14;100.00;100653.06;5083306;28;21766;-50
2022/07/24 09:35:39;;;;;;;3.15;0.30;;;;;;;23.36;100.00;100633.84;5085462;28;20392;-55
2022/07/24 09:38:08;;;;;;;1.98;0.75;;;;;;;23.68;100.00;100628.09;5087903;28;20048;-48
2022/07/24 09:40:40;;;;;;;1.40;0.40;;;;;;;23.73;100.00;100635.44;5083450;28;20374;-50
2022/07/24 09:43:25;;;;;;;0.50;0.25;;;;;;;23.68;100.00;100632.72;5086421;28;20027;-53
2022/07/24 09:45:58;;;;;;;1.70;0.35;;;;;;;23.64;100.00;100629.72;5085450;28;20458;-55
2022/07/24 09:48:40;;;;;;;0.90;0.30;;;;;;;23.57;100.00;100628.38;5084586;28;20036;-48
2022/07/24 09:51:16;;;;;;;3.92;0.85;;;;;;;23.68;100.00;100625.41;5088102;28;20040;-51
2022/07/24 09:53:46;;;;;;;0.28;0.10;;;;;;;23.88;100.00;100629.13;5076823;28;20029;-45
2022/07/24 09:56:14;;;;;;;3.17;0.50;;;;;;;24.06;100.00;100625.84;5083232;28;20054;-48
2022/07/24 09:58:44;;;;;;;0.43;0.17;;;;;;;24.15;100.00;100617.94;5085447;28;20023;-50
2022/07/24 10:01:09;;;;;;;1.45;0.30;;;;;;;24.28;100.00;100622.75;5078806;28;20085;-44
2022/07/24 10:03:40;;;;;;;2.92;0.63;;;;;;;24.33;100.00;100624.63;5083129;28;20116;-50
2022/07/24 10:06:12;;;;;;;6.43;0.50;;;;;;;24.49;100.00;100619.94;5087959;28;20417;-46
2022/07/24 10:08:41;;;;;;;2.00;1.30;;;;;;;24.61;100.00;100628.56;5076508;28;20047;-52
2022/07/24 10:11:07;;;;;;;2.35;0.60;;;;;;;24.57;100.00;100612.03;5087245;28;20036;-48
2022/07/24 10:13:34;;;;;;;1.15;0.60;;;;;;;24.42;100.00;100616.72;5079824;28;20503;-55
2022/07/24 10:16:14;;;;;;;1.85;0.55;;;;;;;24.29;100.00;100610.00;5085049;28;20040;-53
2022/07/24 10:18:57;;;;;;;0.43;0.30;;;;;;;24.32;100.00;100612.97;5073943;28;20388;-54
2022/07/24 10:21:28;;;;;;;1.25;0.60;;;;;;;24.64;100.00;100613.63;5083880;28;20055;-50
2022/07/24 10:24:03;;;;;;;0.77;0.50;;;;;;;24.70;100.00;100609.78;5087372;28;20036;-54
2022/07/24 10:26:49;;;;;;;3.85;0.93;;;;;;;24.75;100.00;100599.69;5080365;28;20032;-47
2022/07/24 10:29:23;;;;;;;3.03;0.35;;;;;;;24.76;100.00;100601.34;5077148;28;20089;-51
2022/07/24 10:31:50;;;;;;;10.88;0.68;;;;;;;25.01;100.00;100597.63;5079561;28;20451;-51
2022/07/24 10:34:37;;;;;;;4.28;1.05;;;;;;;25.32;100.00;100596.53;5084380;28;20139;-48
2022/07/24 10:37:36;;;;;;;10.60;1.17;;;;;;;25.36;100.00;100597.59;5088205;28;20570;-54
2022/07/24 10:40:10;;;;;;;17.58;2.90;;;;;;;25.30;100.00;100590.59;5068840;28;20116;-49
2022/07/24 10:43:20;;;;;;;23.60;2.05;;;;;;;25.37;100.00;100597.28;5073237;28;20120;-52
2022/07/24 10:46:06;;;;;;;5.60;1.45;;;;;;;25.56;100.00;100602.81;5065636;28;20117;-53
2022/07/24 10:48:39;;;;;;;4.80;1.35;;;;;;;25.67;100.00;100604.31;5073483;28;20036;-56
2022/07/24 10:51:07;;;;;;;1.20;0.63;;;;;;;25.67;100.00;100598.88;5074574;28;20383;-49
2022/07/24 10:53:38;;;;;;;3.63;0.70;;;;;;;25.73;100.00;100579.81;5081001;28;20387;-56
2022/07/24 10:56:19;;;;;;;0.63;0.50;;;;;;;25.84;100.00;100587.59;5072945;28;20392;-53
2022/07/24 10:59:03;;;;;;;1.55;0.50;;;;;;;25.87;100.00;100592.44;5074838;28;20031;-50
2022/07/24 11:01:30;;;;;;;13.95;1.10;;;;;;;25.91;100.00;100589.13;5078912;28;20046;-50
2022/07/24 11:03:57;;;;;;;3.50;1.15;;;;;;;25.99;97.46;100583.03;5078867;28;20127;-47
2022/07/24 11:06:49;;;;;;;2.35;0.73;;;;;;;26.03;95.38;100582.16;5082651;28;20032;-56
2022/07/24 11:09:15;;;;;;;;;;;;;;;26.10;93.09;100585.34;5072790;28;20583;-47
2022/07/24 11:11:51;;;;;;;3.60;0.28;;;;;;;26.33;94.48;100575.50;5078149;28;19924;-51
2022/07/24 11:14:37;;;;;;;6.80;1.33;;;;;;;26.26;93.58;100569.63;5079772;28;20032;-46
2022/07/24 11:17:40;;;;;;;2.75;0.68;;;;;;;26.49;94.82;100578.00;5083196;28;20483;-58